sensor_id;sensor_type;location;lat;lon;timestamp;P1;durP1;ratioP1;P2;durP2;ratioP2
17283;SDS011;8760;52.248;20.952;2022-10-16T00:00:54;15.87;;;10.93;;
17283;SDS011;8760;52.248;20.952;2022-10-16T00:03:21;15.90;;;11.10;;
17283;SDS011;8760;52.248;20.952;2022-10-16T00:05:48;14.33;;;11.30;;
17283;SDS011;8760;52.248;20.952;2022-10-16T00:08:15;14.67;;;10.23;;
17283;SDS011;8760;52.248;20.952;2022-10-16T00:10:42;12.90;;;10.73;;
17283;SDS011;8760;52.248;20.952;2022-10-16T00:13:09;15.53;;;10.70;;
17283;SDS011;8760;52.248;20.952;2022-10-16T00:15:36;15.27;;;11.13;;
17283;SDS011;8760;52.248;20.952;2022-10-16T00:18:05;13.73;;;10.70;;
17283;SDS011;8760;52.248;20.952;2022-10-16T00:20:33;15.17;;;10.07;;
17283;SDS011;8760;52.248;20.952;2022-10-16T00:23:01;12.40;;;10.00;;
17283;SDS011;8760;52.248;20.952;2022-10-16T00:25:29;14.23;;;10.53;;
17283;SDS011;8760;52.248;20.952;2022-10-16T00:27:57;12.03;;;9.83;;
17283;SDS011;8760;52.248;20.952;2022-10-16T00:30:24;14.37;;;10.43;;
17283;SDS011;8760;52.248;20.952;2022-10-16T00:32:52;14.90;;;9.93;;
17283;SDS011;8760;52.248;20.952;2022-10-16T00:35:21;12.00;;;9.53;;
17283;SDS011;8760;52.248;20.952;2022-10-16T00:37:48;11.80;;;10.07;;
17283;SDS011;8760;52.248;20.952;2022-10-16T00:40:15;13.43;;;9.93;;
17283;SDS011;8760;52.248;20.952;2022-10-16T00:42:42;14.87;;;10.40;;
17283;SDS011;8760;52.248;20.952;2022-10-16T00:45:09;16.20;;;11.53;;
17283;SDS011;8760;52.248;20.952;2022-10-16T00:47:37;16.27;;;11.37;;
17283;SDS011;8760;52.248;20.952;2022-10-16T00:50:07;19.37;;;11.60;;
17283;SDS011;8760;52.248;20.952;2022-10-16T00:52:38;17.53;;;11.87;;
17283;SDS011;8760;52.248;20.952;2022-10-16T00:55:09;14.03;;;11.77;;
17283;SDS011;8760;52.248;20.952;2022-10-16T00:57:36;16.23;;;11.73;;
17283;SDS011;8760;52.248;20.952;2022-10-16T01:00:05;16.83;;;12.20;;
17283;SDS011;8760;52.248;20.952;2022-10-16T01:02:35;16.60;;;12.67;;
17283;SDS011;8760;52.248;20.952;2022-10-16T01:05:02;15.87;;;12.40;;
17283;SDS011;8760;52.248;20.952;2022-10-16T01:07:32;13.93;;;12.03;;
17283;SDS011;8760;52.248;20.952;2022-10-16T01:10:08;16.20;;;12.83;;
17283;SDS011;8760;52.248;20.952;2022-10-16T01:12:44;16.63;;;12.37;;
17283;SDS011;8760;52.248;20.952;2022-10-16T01:15:17;15.63;;;12.60;;
17283;SDS011;8760;52.248;20.952;2022-10-16T01:17:51;16.80;;;12.30;;
17283;SDS011;8760;52.248;20.952;2022-10-16T01:20:24;16.10;;;12.80;;
17283;SDS011;8760;52.248;20.952;2022-10-16T01:23:04;18.07;;;12.57;;
17283;SDS011;8760;52.248;20.952;2022-10-16T01:28:38;18.93;;;13.37;;
17283;SDS011;8760;52.248;20.952;2022-10-16T01:31:08;18.83;;;12.60;;
17283;SDS011;8760;52.248;20.952;2022-10-16T01:33:39;19.20;;;12.90;;
17283;SDS011;8760;52.248;20.952;2022-10-16T01:36:11;15.50;;;12.27;;
17283;SDS011;8760;52.248;20.952;2022-10-16T01:38:42;16.90;;;12.77;;
17283;SDS011;8760;52.248;20.952;2022-10-16T01:41:14;19.00;;;12.73;;
17283;SDS011;8760;52.248;20.952;2022-10-16T01:43:46;17.03;;;12.77;;
17283;SDS011;8760;52.248;20.952;2022-10-16T01:46:17;18.20;;;13.00;;
17283;SDS011;8760;52.248;20.952;2022-10-16T01:48:46;17.90;;;13.37;;
17283;SDS011;8760;52.248;20.952;2022-10-16T01:51:15;21.23;;;14.03;;
17283;SDS011;8760;52.248;20.952;2022-10-16T01:53:46;16.97;;;13.50;;
17283;SDS011;8760;52.248;20.952;2022-10-16T01:56:15;16.17;;;13.00;;
17283;SDS011;8760;52.248;20.952;2022-10-16T01:58:47;18.40;;;14.50;;
17283;SDS011;8760;52.248;20.952;2022-10-16T02:01:19;18.17;;;13.23;;
17283;SDS011;8760;52.248;20.952;2022-10-16T02:03:49;20.23;;;14.17;;
17283;SDS011;8760;52.248;20.952;2022-10-16T02:06:20;17.97;;;14.00;;
17283;SDS011;8760;52.248;20.952;2022-10-16T02:08:47;20.77;;;13.73;;
17283;SDS011;8760;52.248;20.952;2022-10-16T02:11:14;17.93;;;14.57;;
17283;SDS011;8760;52.248;20.952;2022-10-16T02:13:42;20.17;;;14.77;;
17283;SDS011;8760;52.248;20.952;2022-10-16T02:16:14;21.83;;;14.20;;
17283;SDS011;8760;52.248;20.952;2022-10-16T02:18:41;19.20;;;14.17;;
17283;SDS011;8760;52.248;20.952;2022-10-16T02:21:10;16.73;;;14.07;;
17283;SDS011;8760;52.248;20.952;2022-10-16T02:23:44;16.80;;;13.83;;
17283;SDS011;8760;52.248;20.952;2022-10-16T02:26:20;21.13;;;14.47;;
17283;SDS011;8760;52.248;20.952;2022-10-16T02:28:55;17.13;;;13.60;;
17283;SDS011;8760;52.248;20.952;2022-10-16T02:31:28;19.33;;;14.57;;
17283;SDS011;8760;52.248;20.952;2022-10-16T02:33:59;20.60;;;13.70;;
17283;SDS011;8760;52.248;20.952;2022-10-16T02:36:30;19.77;;;14.23;;
17283;SDS011;8760;52.248;20.952;2022-10-16T02:38:58;20.50;;;14.70;;
17283;SDS011;8760;52.248;20.952;2022-10-16T02:41:26;17.67;;;14.13;;
17283;SDS011;8760;52.248;20.952;2022-10-16T02:43:53;19.70;;;14.00;;
17283;SDS011;8760;52.248;20.952;2022-10-16T02:46:21;18.60;;;14.37;;
17283;SDS011;8760;52.248;20.952;2022-10-16T02:48:49;18.80;;;14.00;;
17283;SDS011;8760;52.248;20.952;2022-10-16T02:51:16;22.60;;;14.60;;
17283;SDS011;8760;52.248;20.952;2022-10-16T02:53:43;18.07;;;14.47;;
17283;SDS011;8760;52.248;20.952;2022-10-16T02:56:10;18.40;;;14.17;;
17283;SDS011;8760;52.248;20.952;2022-10-16T02:58:37;22.37;;;14.47;;
17283;SDS011;8760;52.248;20.952;2022-10-16T03:01:04;19.07;;;14.07;;
17283;SDS011;8760;52.248;20.952;2022-10-16T03:03:31;21.33;;;15.20;;
17283;SDS011;8760;52.248;20.952;2022-10-16T03:05:59;19.07;;;14.77;;
17283;SDS011;8760;52.248;20.952;2022-10-16T03:08:26;18.73;;;14.57;;
17283;SDS011;8760;52.248;20.952;2022-10-16T03:10:53;19.03;;;14.53;;
17283;SDS011;8760;52.248;20.952;2022-10-16T03:13:20;17.67;;;14.30;;
17283;SDS011;8760;52.248;20.952;2022-10-16T03:15:47;19.63;;;13.37;;
17283;SDS011;8760;52.248;20.952;2022-10-16T03:18:14;19.57;;;14.70;;
17283;SDS011;8760;52.248;20.952;2022-10-16T03:20:42;19.07;;;14.83;;
17283;SDS011;8760;52.248;20.952;2022-10-16T03:23:10;19.00;;;14.80;;
17283;SDS011;8760;52.248;20.952;2022-10-16T03:25:37;20.37;;;14.63;;
17283;SDS011;8760;52.248;20.952;2022-10-16T03:28:04;17.17;;;14.10;;
17283;SDS011;8760;52.248;20.952;2022-10-16T03:30:31;18.93;;;14.20;;
17283;SDS011;8760;52.248;20.952;2022-10-16T03:32:58;19.43;;;15.30;;
17283;SDS011;8760;52.248;20.952;2022-10-16T03:35:25;19.17;;;14.73;;
17283;SDS011;8760;52.248;20.952;2022-10-16T03:37:52;22.90;;;14.77;;
17283;SDS011;8760;52.248;20.952;2022-10-16T03:40:21;18.67;;;13.57;;
17283;SDS011;8760;52.248;20.952;2022-10-16T03:42:48;22.13;;;15.07;;
17283;SDS011;8760;52.248;20.952;2022-10-16T03:45:15;19.20;;;14.17;;
17283;SDS011;8760;52.248;20.952;2022-10-16T03:47:42;20.97;;;15.00;;
17283;SDS011;8760;52.248;20.952;2022-10-16T03:50:09;21.00;;;13.83;;
17283;SDS011;8760;52.248;20.952;2022-10-16T03:52:35;18.83;;;13.97;;
17283;SDS011;8760;52.248;20.952;2022-10-16T03:55:03;19.33;;;14.30;;
17283;SDS011;8760;52.248;20.952;2022-10-16T03:57:31;19.67;;;14.23;;
17283;SDS011;8760;52.248;20.952;2022-10-16T03:59:58;18.00;;;14.17;;
17283;SDS011;8760;52.248;20.952;2022-10-16T04:02:25;19.33;;;14.37;;
17283;SDS011;8760;52.248;20.952;2022-10-16T04:04:52;19.47;;;13.83;;
17283;SDS011;8760;52.248;20.952;2022-10-16T04:07:19;20.77;;;14.77;;
17283;SDS011;8760;52.248;20.952;2022-10-16T04:09:46;20.97;;;14.17;;
17283;SDS011;8760;52.248;20.952;2022-10-16T04:12:13;20.40;;;14.73;;
17283;SDS011;8760;52.248;20.952;2022-10-16T04:14:41;19.33;;;14.40;;
17283;SDS011;8760;52.248;20.952;2022-10-16T04:17:08;18.47;;;14.03;;
17283;SDS011;8760;52.248;20.952;2022-10-16T04:19:35;18.07;;;13.43;;
17283;SDS011;8760;52.248;20.952;2022-10-16T04:22:02;19.90;;;14.43;;
17283;SDS011;8760;52.248;20.952;2022-10-16T04:24:28;22.40;;;14.80;;
17283;SDS011;8760;52.248;20.952;2022-10-16T04:26:55;16.97;;;13.93;;
17283;SDS011;8760;52.248;20.952;2022-10-16T04:29:22;19.53;;;14.07;;
17283;SDS011;8760;52.248;20.952;2022-10-16T04:31:51;19.70;;;14.13;;
17283;SDS011;8760;52.248;20.952;2022-10-16T04:34:17;19.20;;;14.47;;
17283;SDS011;8760;52.248;20.952;2022-10-16T04:36:46;22.03;;;14.40;;
17283;SDS011;8760;52.248;20.952;2022-10-16T04:39:14;18.50;;;14.60;;
17283;SDS011;8760;52.248;20.952;2022-10-16T04:41:41;22.87;;;14.50;;
17283;SDS011;8760;52.248;20.952;2022-10-16T04:44:08;18.87;;;13.87;;
17283;SDS011;8760;52.248;20.952;2022-10-16T04:46:35;16.73;;;13.57;;
17283;SDS011;8760;52.248;20.952;2022-10-16T04:49:03;20.30;;;14.17;;
17283;SDS011;8760;52.248;20.952;2022-10-16T04:51:30;18.10;;;14.13;;
17283;SDS011;8760;52.248;20.952;2022-10-16T04:53:57;15.33;;;13.23;;
17283;SDS011;8760;52.248;20.952;2022-10-16T04:56:24;21.83;;;14.50;;
17283;SDS011;8760;52.248;20.952;2022-10-16T04:58:51;18.67;;;13.57;;
17283;SDS011;8760;52.248;20.952;2022-10-16T05:01:19;20.43;;;13.77;;
17283;SDS011;8760;52.248;20.952;2022-10-16T05:03:45;18.30;;;14.10;;
17283;SDS011;8760;52.248;20.952;2022-10-16T05:06:14;18.80;;;13.63;;
17283;SDS011;8760;52.248;20.952;2022-10-16T05:08:41;19.80;;;14.37;;
17283;SDS011;8760;52.248;20.952;2022-10-16T05:11:08;16.73;;;14.60;;
17283;SDS011;8760;52.248;20.952;2022-10-16T05:13:35;23.07;;;16.67;;
17283;SDS011;8760;52.248;20.952;2022-10-16T05:16:01;21.63;;;14.90;;
17283;SDS011;8760;52.248;20.952;2022-10-16T05:18:28;18.80;;;14.70;;
17283;SDS011;8760;52.248;20.952;2022-10-16T05:20:55;18.30;;;13.60;;
17283;SDS011;8760;52.248;20.952;2022-10-16T05:23:24;19.83;;;14.40;;
17283;SDS011;8760;52.248;20.952;2022-10-16T05:25:54;19.47;;;14.73;;
17283;SDS011;8760;52.248;20.952;2022-10-16T05:28:23;17.60;;;13.67;;
17283;SDS011;8760;52.248;20.952;2022-10-16T05:30:50;19.43;;;14.57;;
17283;SDS011;8760;52.248;20.952;2022-10-16T05:33:17;20.80;;;15.13;;
17283;SDS011;8760;52.248;20.952;2022-10-16T05:35:46;21.17;;;15.80;;
17283;SDS011;8760;52.248;20.952;2022-10-16T05:38:13;19.30;;;15.27;;
17283;SDS011;8760;52.248;20.952;2022-10-16T05:40:41;20.13;;;14.03;;
17283;SDS011;8760;52.248;20.952;2022-10-16T05:43:09;18.80;;;14.23;;
17283;SDS011;8760;52.248;20.952;2022-10-16T05:45:36;19.60;;;14.43;;
17283;SDS011;8760;52.248;20.952;2022-10-16T05:48:03;18.67;;;14.47;;
17283;SDS011;8760;52.248;20.952;2022-10-16T05:50:30;21.83;;;14.83;;
17283;SDS011;8760;52.248;20.952;2022-10-16T05:52:57;21.50;;;14.93;;
17283;SDS011;8760;52.248;20.952;2022-10-16T05:55:24;18.53;;;14.70;;
17283;SDS011;8760;52.248;20.952;2022-10-16T05:57:54;23.07;;;14.50;;
17283;SDS011;8760;52.248;20.952;2022-10-16T06:00:21;19.70;;;15.07;;
17283;SDS011;8760;52.248;20.952;2022-10-16T06:02:48;19.13;;;13.77;;
17283;SDS011;8760;52.248;20.952;2022-10-16T06:05:15;18.17;;;14.43;;
17283;SDS011;8760;52.248;20.952;2022-10-16T06:07:42;19.13;;;14.43;;
17283;SDS011;8760;52.248;20.952;2022-10-16T06:10:09;22.37;;;14.60;;
17283;SDS011;8760;52.248;20.952;2022-10-16T06:12:36;20.33;;;13.77;;
17283;SDS011;8760;52.248;20.952;2022-10-16T06:15:05;18.57;;;14.43;;
17283;SDS011;8760;52.248;20.952;2022-10-16T06:17:32;17.53;;;14.30;;
17283;SDS011;8760;52.248;20.952;2022-10-16T06:19:59;21.03;;;15.47;;
17283;SDS011;8760;52.248;20.952;2022-10-16T06:22:26;19.57;;;15.53;;
17283;SDS011;8760;52.248;20.952;2022-10-16T06:24:53;19.07;;;14.77;;
17283;SDS011;8760;52.248;20.952;2022-10-16T06:27:19;22.17;;;15.30;;
17283;SDS011;8760;52.248;20.952;2022-10-16T06:29:46;18.83;;;14.40;;
17283;SDS011;8760;52.248;20.952;2022-10-16T06:32:15;19.30;;;14.83;;
17283;SDS011;8760;52.248;20.952;2022-10-16T06:34:42;19.40;;;14.47;;
17283;SDS011;8760;52.248;20.952;2022-10-16T06:37:09;18.57;;;14.63;;
17283;SDS011;8760;52.248;20.952;2022-10-16T06:39:35;16.37;;;13.43;;
17283;SDS011;8760;52.248;20.952;2022-10-16T06:42:02;17.43;;;13.73;;
17283;SDS011;8760;52.248;20.952;2022-10-16T06:44:29;19.07;;;14.70;;
17283;SDS011;8760;52.248;20.952;2022-10-16T06:46:56;18.23;;;13.70;;
17283;SDS011;8760;52.248;20.952;2022-10-16T06:49:24;19.17;;;14.13;;
17283;SDS011;8760;52.248;20.952;2022-10-16T06:51:53;20.33;;;13.53;;
17283;SDS011;8760;52.248;20.952;2022-10-16T06:54:20;18.73;;;12.70;;
17283;SDS011;8760;52.248;20.952;2022-10-16T06:56:47;17.48;;;12.57;;
17283;SDS011;8760;52.248;20.952;2022-10-16T06:59:14;16.00;;;12.80;;
17283;SDS011;8760;52.248;20.952;2022-10-16T07:01:41;20.73;;;13.00;;
17283;SDS011;8760;52.248;20.952;2022-10-16T07:04:08;23.92;;;12.38;;
17283;SDS011;8760;52.248;20.952;2022-10-16T07:06:36;15.68;;;12.65;;
17283;SDS011;8760;52.248;20.952;2022-10-16T07:09:04;16.35;;;12.52;;
17283;SDS011;8760;52.248;20.952;2022-10-16T07:11:36;16.20;;;11.88;;
17283;SDS011;8760;52.248;20.952;2022-10-16T07:14:03;19.23;;;12.95;;
17283;SDS011;8760;52.248;20.952;2022-10-16T07:16:31;16.10;;;12.82;;
17283;SDS011;8760;52.248;20.952;2022-10-16T07:18:59;18.08;;;13.68;;
17283;SDS011;8760;52.248;20.952;2022-10-16T07:21:28;20.45;;;12.88;;
17283;SDS011;8760;52.248;20.952;2022-10-16T07:24:01;17.95;;;12.77;;
17283;SDS011;8760;52.248;20.952;2022-10-16T07:26:30;19.90;;;14.03;;
17283;SDS011;8760;52.248;20.952;2022-10-16T07:28:59;19.20;;;14.00;;
17283;SDS011;8760;52.248;20.952;2022-10-16T07:31:26;16.00;;;13.27;;
17283;SDS011;8760;52.248;20.952;2022-10-16T07:33:54;17.60;;;13.60;;
17283;SDS011;8760;52.248;20.952;2022-10-16T07:36:21;17.70;;;13.30;;
17283;SDS011;8760;52.248;20.952;2022-10-16T07:38:48;19.00;;;13.68;;
17283;SDS011;8760;52.248;20.952;2022-10-16T07:41:17;20.05;;;13.60;;
17283;SDS011;8760;52.248;20.952;2022-10-16T07:43:45;14.32;;;12.43;;
17283;SDS011;8760;52.248;20.952;2022-10-16T07:46:13;18.60;;;13.07;;
17283;SDS011;8760;52.248;20.952;2022-10-16T07:48:41;15.45;;;12.52;;
17283;SDS011;8760;52.248;20.952;2022-10-16T07:51:10;15.68;;;11.65;;
17283;SDS011;8760;52.248;20.952;2022-10-16T07:53:38;25.75;;;19.75;;
17283;SDS011;8760;52.248;20.952;2022-10-16T07:56:06;16.58;;;12.05;;
17283;SDS011;8760;52.248;20.952;2022-10-16T07:58:35;15.75;;;11.32;;
17283;SDS011;8760;52.248;20.952;2022-10-16T08:01:03;13.27;;;10.60;;
17283;SDS011;8760;52.248;20.952;2022-10-16T08:03:31;13.45;;;10.68;;
17283;SDS011;8760;52.248;20.952;2022-10-16T08:05:58;13.45;;;10.82;;
17283;SDS011;8760;52.248;20.952;2022-10-16T08:08:28;12.27;;;10.10;;
17283;SDS011;8760;52.248;20.952;2022-10-16T08:10:55;15.48;;;10.80;;
17283;SDS011;8760;52.248;20.952;2022-10-16T08:13:22;14.82;;;10.65;;
17283;SDS011;8760;52.248;20.952;2022-10-16T08:15:51;12.73;;;10.07;;
17283;SDS011;8760;52.248;20.952;2022-10-16T08:18:19;13.88;;;10.65;;
17283;SDS011;8760;52.248;20.952;2022-10-16T08:20:46;14.73;;;10.57;;
17283;SDS011;8760;52.248;20.952;2022-10-16T08:23:13;15.52;;;10.55;;
17283;SDS011;8760;52.248;20.952;2022-10-16T08:25:40;13.95;;;10.65;;
17283;SDS011;8760;52.248;20.952;2022-10-16T08:28:08;12.00;;;10.57;;
17283;SDS011;8760;52.248;20.952;2022-10-16T08:30:37;13.90;;;10.45;;
17283;SDS011;8760;52.248;20.952;2022-10-16T08:33:05;12.73;;;10.48;;
17283;SDS011;8760;52.248;20.952;2022-10-16T08:35:32;11.63;;;9.75;;
17283;SDS011;8760;52.248;20.952;2022-10-16T08:37:59;13.27;;;9.93;;
17283;SDS011;8760;52.248;20.952;2022-10-16T08:40:26;12.75;;;9.90;;
17283;SDS011;8760;52.248;20.952;2022-10-16T08:43:03;14.27;;;10.50;;
17283;SDS011;8760;52.248;20.952;2022-10-16T08:45:52;12.10;;;10.05;;
17283;SDS011;8760;52.248;20.952;2022-10-16T08:48:35;14.38;;;10.27;;
17283;SDS011;8760;52.248;20.952;2022-10-16T08:51:10;12.02;;;10.18;;
17283;SDS011;8760;52.248;20.952;2022-10-16T08:53:45;13.93;;;9.85;;
17283;SDS011;8760;52.248;20.952;2022-10-16T08:56:15;13.23;;;10.18;;
17283;SDS011;8760;52.248;20.952;2022-10-16T08:58:44;15.57;;;10.23;;
17283;SDS011;8760;52.248;20.952;2022-10-16T09:01:12;11.07;;;9.93;;
17283;SDS011;8760;52.248;20.952;2022-10-16T09:03:45;12.30;;;9.40;;
17283;SDS011;8760;52.248;20.952;2022-10-16T09:06:36;10.98;;;9.68;;
17283;SDS011;8760;52.248;20.952;2022-10-16T09:09:14;11.07;;;9.73;;
17283;SDS011;8760;52.248;20.952;2022-10-16T09:11:56;11.25;;;9.60;;
17283;SDS011;8760;52.248;20.952;2022-10-16T09:14:37;14.25;;;10.93;;
17283;SDS011;8760;52.248;20.952;2022-10-16T09:17:27;11.75;;;9.38;;
17283;SDS011;8760;52.248;20.952;2022-10-16T09:20:07;15.90;;;9.55;;
17283;SDS011;8760;52.248;20.952;2022-10-16T09:22:43;13.15;;;9.40;;
17283;SDS011;8760;52.248;20.952;2022-10-16T09:25:11;11.75;;;8.52;;
17283;SDS011;8760;52.248;20.952;2022-10-16T09:27:39;13.07;;;9.13;;
17283;SDS011;8760;52.248;20.952;2022-10-16T09:30:10;13.00;;;9.77;;
17283;SDS011;8760;52.248;20.952;2022-10-16T09:32:39;14.27;;;9.82;;
17283;SDS011;8760;52.248;20.952;2022-10-16T09:35:13;11.20;;;8.70;;
17283;SDS011;8760;52.248;20.952;2022-10-16T09:37:42;11.85;;;9.38;;
17283;SDS011;8760;52.248;20.952;2022-10-16T09:40:13;13.43;;;9.45;;
17283;SDS011;8760;52.248;20.952;2022-10-16T09:42:49;11.20;;;9.05;;
17283;SDS011;8760;52.248;20.952;2022-10-16T09:45:21;13.27;;;9.30;;
17283;SDS011;8760;52.248;20.952;2022-10-16T09:47:49;13.27;;;9.68;;
17283;SDS011;8760;52.248;20.952;2022-10-16T09:50:21;12.75;;;10.52;;
17283;SDS011;8760;52.248;20.952;2022-10-16T09:52:51;12.52;;;8.90;;
17283;SDS011;8760;52.248;20.952;2022-10-16T09:55:29;10.85;;;8.60;;
17283;SDS011;8760;52.248;20.952;2022-10-16T09:57:56;9.98;;;8.90;;
17283;SDS011;8760;52.248;20.952;2022-10-16T10:00:23;10.30;;;9.15;;
17283;SDS011;8760;52.248;20.952;2022-10-16T10:02:51;11.48;;;8.93;;
17283;SDS011;8760;52.248;20.952;2022-10-16T10:05:21;13.02;;;8.52;;
17283;SDS011;8760;52.248;20.952;2022-10-16T10:07:53;12.80;;;9.40;;
17283;SDS011;8760;52.248;20.952;2022-10-16T10:10:22;12.68;;;9.38;;
17283;SDS011;8760;52.248;20.952;2022-10-16T10:12:51;10.27;;;8.25;;
17283;SDS011;8760;52.248;20.952;2022-10-16T10:15:19;14.02;;;8.75;;
17283;SDS011;8760;52.248;20.952;2022-10-16T10:17:48;12.07;;;8.68;;
17283;SDS011;8760;52.248;20.952;2022-10-16T10:20:23;11.20;;;8.85;;
17283;SDS011;8760;52.248;20.952;2022-10-16T10:22:52;13.35;;;9.07;;
17283;SDS011;8760;52.248;20.952;2022-10-16T10:25:26;11.27;;;9.05;;
17283;SDS011;8760;52.248;20.952;2022-10-16T10:28:07;10.00;;;8.70;;
17283;SDS011;8760;52.248;20.952;2022-10-16T10:30:53;12.77;;;8.38;;
17283;SDS011;8760;52.248;20.952;2022-10-16T10:33:27;12.40;;;8.23;;
17283;SDS011;8760;52.248;20.952;2022-10-16T10:36:04;9.55;;;8.32;;
17283;SDS011;8760;52.248;20.952;2022-10-16T10:38:39;9.90;;;8.82;;
17283;SDS011;8760;52.248;20.952;2022-10-16T10:41:19;11.00;;;8.75;;
17283;SDS011;8760;52.248;20.952;2022-10-16T10:43:59;9.68;;;8.68;;
17283;SDS011;8760;52.248;20.952;2022-10-16T10:46:32;11.05;;;9.20;;
17283;SDS011;8760;52.248;20.952;2022-10-16T10:49:10;16.60;;;9.18;;
17283;SDS011;8760;52.248;20.952;2022-10-16T10:51:56;10.77;;;9.68;;
17283;SDS011;8760;52.248;20.952;2022-10-16T10:54:32;11.88;;;9.05;;
17283;SDS011;8760;52.248;20.952;2022-10-16T10:57:07;10.93;;;8.70;;
17283;SDS011;8760;52.248;20.952;2022-10-16T10:59:46;12.43;;;9.43;;
17283;SDS011;8760;52.248;20.952;2022-10-16T11:02:22;13.55;;;9.55;;
17283;SDS011;8760;52.248;20.952;2022-10-16T11:05:00;12.23;;;9.18;;
17283;SDS011;8760;52.248;20.952;2022-10-16T11:07:58;10.98;;;9.10;;
17283;SDS011;8760;52.248;20.952;2022-10-16T11:10:29;13.73;;;9.70;;
17283;SDS011;8760;52.248;20.952;2022-10-16T11:13:04;11.55;;;9.00;;
17283;SDS011;8760;52.248;20.952;2022-10-16T11:15:41;11.30;;;9.60;;
17283;SDS011;8760;52.248;20.952;2022-10-16T11:18:11;11.02;;;9.88;;
17283;SDS011;8760;52.248;20.952;2022-10-16T11:20:44;10.52;;;9.07;;
17283;SDS011;8760;52.248;20.952;2022-10-16T11:23:18;16.42;;;9.90;;
17283;SDS011;8760;52.248;20.952;2022-10-16T11:25:51;12.60;;;9.45;;
17283;SDS011;8760;52.248;20.952;2022-10-16T11:28:23;11.23;;;9.00;;
17283;SDS011;8760;52.248;20.952;2022-10-16T11:30:55;12.27;;;9.57;;
17283;SDS011;8760;52.248;20.952;2022-10-16T11:33:27;14.48;;;8.38;;
17283;SDS011;8760;52.248;20.952;2022-10-16T11:36:03;11.82;;;8.32;;
17283;SDS011;8760;52.248;20.952;2022-10-16T11:38:38;11.20;;;8.95;;
17283;SDS011;8760;52.248;20.952;2022-10-16T11:41:12;11.85;;;8.60;;
17283;SDS011;8760;52.248;20.952;2022-10-16T11:43:46;12.65;;;8.65;;
17283;SDS011;8760;52.248;20.952;2022-10-16T11:46:20;10.88;;;8.25;;
17283;SDS011;8760;52.248;20.952;2022-10-16T11:48:51;9.43;;;8.38;;
17283;SDS011;8760;52.248;20.952;2022-10-16T11:51:25;9.30;;;8.40;;
17283;SDS011;8760;52.248;20.952;2022-10-16T11:54:03;9.38;;;8.15;;
17283;SDS011;8760;52.248;20.952;2022-10-16T11:56:36;10.75;;;8.02;;
17283;SDS011;8760;52.248;20.952;2022-10-16T11:59:07;15.00;;;8.50;;
17283;SDS011;8760;52.248;20.952;2022-10-16T12:01:42;10.57;;;7.75;;
17283;SDS011;8760;52.248;20.952;2022-10-16T12:04:15;10.65;;;8.35;;
17283;SDS011;8760;52.248;20.952;2022-10-16T12:06:48;10.52;;;8.40;;
17283;SDS011;8760;52.248;20.952;2022-10-16T12:09:23;12.57;;;8.23;;
17283;SDS011;8760;52.248;20.952;2022-10-16T12:11:53;10.98;;;8.68;;
17283;SDS011;8760;52.248;20.952;2022-10-16T12:17:03;9.60;;;8.35;;
17283;SDS011;8760;52.248;20.952;2022-10-16T12:19:56;14.00;;;9.00;;
17283;SDS011;8760;52.248;20.952;2022-10-16T12:22:25;12.13;;;8.98;;
17283;SDS011;8760;52.248;20.952;2022-10-16T12:24:56;11.98;;;7.85;;
17283;SDS011;8760;52.248;20.952;2022-10-16T12:27:25;10.38;;;8.20;;
17283;SDS011;8760;52.248;20.952;2022-10-16T12:29:55;11.98;;;8.50;;
17283;SDS011;8760;52.248;20.952;2022-10-16T12:32:26;10.20;;;8.02;;
17283;SDS011;8760;52.248;20.952;2022-10-16T12:34:56;12.90;;;8.18;;
17283;SDS011;8760;52.248;20.952;2022-10-16T12:37:25;8.63;;;7.82;;
17283;SDS011;8760;52.248;20.952;2022-10-16T12:39:55;8.68;;;7.45;;
17283;SDS011;8760;52.248;20.952;2022-10-16T12:42:31;8.68;;;7.60;;
17283;SDS011;8760;52.248;20.952;2022-10-16T12:45:00;10.02;;;7.85;;
17283;SDS011;8760;52.248;20.952;2022-10-16T12:47:38;13.38;;;7.88;;
17283;SDS011;8760;52.248;20.952;2022-10-16T12:50:27;8.70;;;7.30;;
17283;SDS011;8760;52.248;20.952;2022-10-16T12:52:56;8.30;;;7.47;;
17283;SDS011;8760;52.248;20.952;2022-10-16T12:55:25;10.27;;;9.07;;
17283;SDS011;8760;52.248;20.952;2022-10-16T12:58:08;9.32;;;8.32;;
17283;SDS011;8760;52.248;20.952;2022-10-16T13:00:44;11.70;;;8.55;;
17283;SDS011;8760;52.248;20.952;2022-10-16T13:03:22;9.07;;;8.18;;
17283;SDS011;8760;52.248;20.952;2022-10-16T13:06:13;9.90;;;8.65;;
17283;SDS011;8760;52.248;20.952;2022-10-16T13:08:53;10.63;;;8.00;;
17283;SDS011;8760;52.248;20.952;2022-10-16T13:11:36;8.15;;;7.35;;
17283;SDS011;8760;52.248;20.952;2022-10-16T13:17:17;10.98;;;9.35;;
17283;SDS011;8760;52.248;20.952;2022-10-16T13:19:54;15.32;;;8.60;;
17283;SDS011;8760;52.248;20.952;2022-10-16T13:22:29;12.23;;;8.52;;
17283;SDS011;8760;52.248;20.952;2022-10-16T13:25:08;15.30;;;8.57;;
17283;SDS011;8760;52.248;20.952;2022-10-16T13:27:46;13.48;;;8.40;;
17283;SDS011;8760;52.248;20.952;2022-10-16T13:30:21;9.35;;;8.45;;
17283;SDS011;8760;52.248;20.952;2022-10-16T13:32:52;10.70;;;7.82;;
17283;SDS011;8760;52.248;20.952;2022-10-16T13:35:25;13.90;;;8.48;;
17283;SDS011;8760;52.248;20.952;2022-10-16T13:38:02;12.30;;;7.88;;
17283;SDS011;8760;52.248;20.952;2022-10-16T13:40:47;10.98;;;8.27;;
17283;SDS011;8760;52.248;20.952;2022-10-16T13:43:17;10.05;;;8.15;;
17283;SDS011;8760;52.248;20.952;2022-10-16T13:45:56;8.85;;;7.95;;
17283;SDS011;8760;52.248;20.952;2022-10-16T13:48:27;10.32;;;8.18;;
17283;SDS011;8760;52.248;20.952;2022-10-16T13:50:58;13.10;;;8.13;;
17283;SDS011;8760;52.248;20.952;2022-10-16T13:53:30;10.18;;;7.53;;
17283;SDS011;8760;52.248;20.952;2022-10-16T13:55:58;11.52;;;8.18;;
17283;SDS011;8760;52.248;20.952;2022-10-16T13:58:27;9.25;;;7.82;;
17283;SDS011;8760;52.248;20.952;2022-10-16T14:00:55;9.63;;;7.40;;
17283;SDS011;8760;52.248;20.952;2022-10-16T14:03:23;9.68;;;8.02;;
17283;SDS011;8760;52.248;20.952;2022-10-16T14:05:52;9.02;;;7.68;;
17283;SDS011;8760;52.248;20.952;2022-10-16T14:08:21;13.98;;;7.97;;
17283;SDS011;8760;52.248;20.952;2022-10-16T14:10:49;9.30;;;7.32;;
17283;SDS011;8760;52.248;20.952;2022-10-16T14:13:19;12.40;;;8.23;;
17283;SDS011;8760;52.248;20.952;2022-10-16T14:15:54;10.63;;;7.68;;
17283;SDS011;8760;52.248;20.952;2022-10-16T14:18:24;8.48;;;7.15;;
17283;SDS011;8760;52.248;20.952;2022-10-16T14:20:53;15.38;;;8.05;;
17283;SDS011;8760;52.248;20.952;2022-10-16T14:23:22;10.57;;;7.82;;
17283;SDS011;8760;52.248;20.952;2022-10-16T14:25:54;10.30;;;7.40;;
17283;SDS011;8760;52.248;20.952;2022-10-16T14:28:32;10.57;;;7.85;;
17283;SDS011;8760;52.248;20.952;2022-10-16T14:31:01;9.38;;;7.80;;
17283;SDS011;8760;52.248;20.952;2022-10-16T14:33:43;9.93;;;7.28;;
17283;SDS011;8760;52.248;20.952;2022-10-16T14:36:11;9.63;;;7.82;;
17283;SDS011;8760;52.248;20.952;2022-10-16T14:38:40;8.25;;;7.35;;
17283;SDS011;8760;52.248;20.952;2022-10-16T14:41:09;10.85;;;7.82;;
17283;SDS011;8760;52.248;20.952;2022-10-16T14:43:36;19.13;;;8.68;;
17283;SDS011;8760;52.248;20.952;2022-10-16T14:46:12;11.57;;;8.27;;
17283;SDS011;8760;52.248;20.952;2022-10-16T14:48:40;12.52;;;8.40;;
17283;SDS011;8760;52.248;20.952;2022-10-16T14:51:08;8.70;;;7.80;;
17283;SDS011;8760;52.248;20.952;2022-10-16T14:53:40;13.30;;;8.27;;
17283;SDS011;8760;52.248;20.952;2022-10-16T14:56:08;10.30;;;8.35;;